Terminal Aerodrome Forecast
Issued by NWS

Home | Current Version | Previous Version | Graphics & Text | Print | Product List | Glossary On
Versions: 1 2 3 4 5 6 7 8 9 10 11 12 13 14
000
FTUS43 KABR 190900 AAC
TAFMBG
TAF AMD
KMBG 190914Z 1909/2006 09012G20KT P6SM BKN080
     FM191000 13005KT 4SM BR OVC015
     FM191500 20006KT P6SM OVC100
     FM191800 27009KT P6SM BKN250=

USA.gov is the U.S. government's official web portal to all federal, state and local government web resources and services.